Time;durP1;ratioP1;P1;durP2;ratioP2;P2;SDS_P1;SDS_P2;PMS_P1;PMS_P2;Temp;Humidity;BMP_temperature;BMP_pressure;BME280_temperature;BME280_humidity;BME280_pressure;Samples;Min_cycle;Max_cycle;Signal;HPM_P1;HPM_P2
2022/10/15 00:02:16;;;;;;;4.47;2.53;;;;;;;12.69;100.00;94670.13;4996552;28;20215;-60
2022/10/15 00:04:41;;;;;;;5.33;3.10;;;;;;;12.62;100.00;94672.44;5013645;28;20230;-61
2022/10/15 00:07:06;;;;;;;3.83;2.90;;;;;;;12.73;100.00;94703.78;5013799;28;20194;-61
2022/10/15 00:09:32;;;;;;;7.47;3.00;;;;;;;12.88;100.00;94707.50;5013619;28;20210;-61
2022/10/15 00:11:57;;;;;;;5.63;2.83;;;;;;;12.91;100.00;94727.63;5014006;28;20733;-61
2022/10/15 00:14:23;;;;;;;4.93;2.80;;;;;;;12.61;100.00;94693.78;5013735;28;20207;-60
2022/10/15 00:16:48;;;;;;;3.00;2.70;;;;;;;12.63;100.00;94683.44;5012406;28;20293;-58
2022/10/15 00:19:13;;;;;;;4.30;2.57;;;;;;;12.53;100.00;94675.03;5013544;28;20562;-60
2022/10/15 00:21:39;;;;;;;2.87;2.67;;;;;;;12.54;100.00;94674.09;5013472;28;20205;-63
2022/10/15 00:24:05;;;;;;;3.73;2.70;;;;;;;12.60;100.00;94693.94;5013467;28;20206;-61
2022/10/15 00:26:31;;;;;;;5.80;3.07;;;;;;;12.63;100.00;94698.75;5014006;28;20222;-61
2022/10/15 00:28:59;;;;;;;4.00;2.47;;;;;;;12.70;100.00;94696.44;5013501;28;20210;-61
2022/10/15 00:31:27;;;;;;;4.63;2.90;;;;;;;12.69;100.00;94698.19;5013446;28;20284;-61
2022/10/15 00:33:54;;;;;;;6.23;3.30;;;;;;;12.68;100.00;94694.03;5013456;28;20765;-63
2022/10/15 00:36:23;;;;;;;5.23;3.80;;;;;;;12.84;100.00;94696.78;5012073;28;20195;-61
2022/10/15 00:38:49;;;;;;;4.03;3.03;;;;;;;12.81;100.00;94720.00;5013335;28;20234;-62
2022/10/15 00:41:17;;;;;;;7.93;3.37;;;;;;;12.63;100.00;94694.44;5012301;28;20245;-62
2022/10/15 00:43:52;;;;;;;7.23;3.47;;;;;;;12.59;100.00;94682.94;5013364;28;20221;-63
2022/10/15 00:46:31;;;;;;;7.63;3.67;;;;;;;12.45;100.00;94678.28;5013665;28;20246;-61
2022/10/15 00:49:27;;;;;;;6.20;3.40;;;;;;;12.40;100.00;94666.91;5013117;28;20305;-60
2022/10/15 00:51:59;;;;;;;4.43;2.87;;;;;;;12.37;100.00;94668.00;5013530;28;20193;-60
2022/10/15 00:54:27;;;;;;;3.53;3.20;;;;;;;12.35;100.00;94659.69;5011919;28;20210;-61
2022/10/15 00:56:54;;;;;;;4.00;3.40;;;;;;;12.44;100.00;94676.66;5012013;28;20265;-61
2022/10/15 00:59:24;;;;;;;4.30;3.40;;;;;;;12.38;100.00;94672.13;5013175;28;20213;-63
2022/10/15 01:01:50;;;;;;;5.43;3.60;;;;;;;12.30;100.00;94655.97;5011874;28;20233;-60
2022/10/15 01:04:17;;;;;;;4.67;3.50;;;;;;;12.27;100.00;94658.78;5012981;28;20715;-61
2022/10/15 01:06:44;;;;;;;5.80;3.50;;;;;;;12.19;100.00;94654.38;5013303;28;20214;-61
2022/10/15 01:09:11;;;;;;;5.73;3.30;;;;;;;12.31;100.00;94663.47;5013108;28;20223;-61
2022/10/15 01:11:49;;;;;;;4.27;3.40;;;;;;;12.23;100.00;94665.91;5013162;28;20187;-62
2022/10/15 01:14:20;;;;;;;4.03;3.40;;;;;;;12.35;100.00;94669.06;5013035;28;20231;-61
2022/10/15 01:16:53;;;;;;;6.00;4.07;;;;;;;12.33;100.00;94669.22;5013107;28;20567;-60
2022/10/15 01:19:24;;;;;;;5.03;3.13;;;;;;;12.63;100.00;94686.00;5012816;28;20207;-61
2022/10/15 01:22:08;;;;;;;6.37;3.50;;;;;;;12.50;100.00;94680.44;5013169;28;20564;-60
2022/10/15 01:24:40;;;;;;;5.17;3.83;;;;;;;12.66;100.00;94683.16;5013104;28;20210;-60
2022/10/15 01:27:14;;;;;;;4.47;3.30;;;;;;;12.66;100.00;94683.16;5028110;28;20743;-62
2022/10/15 01:29:50;;;;;;;4.33;3.27;;;;;;;12.53;100.00;94664.84;5027737;28;20239;-61
2022/10/15 01:32:21;;;;;;;4.87;3.70;;;;;;;12.51;100.00;94670.09;5012866;28;20187;-60
2022/10/15 01:34:58;;;;;;;5.40;3.40;;;;;;;12.55;100.00;94675.69;5012601;28;20286;-62
2022/10/15 01:38:03;;;;;;;4.97;3.30;;;;;;;12.47;100.00;94667.94;5012637;28;20182;-62
2022/10/15 01:40:40;;;;;;;4.07;3.67;;;;;;;12.71;100.00;94682.72;4995847;28;20238;-61
2022/10/15 01:43:12;;;;;;;7.03;3.53;;;;;;;12.55;100.00;94670.59;5027677;28;20190;-61
2022/10/15 01:45:51;;;;;;;4.23;3.40;;;;;;;12.67;100.00;94684.75;5012329;28;20218;-60
2022/10/15 01:48:18;;;;;;;4.97;4.00;;;;;;;12.62;100.00;94669.09;5012426;28;20301;-60
2022/10/15 01:50:47;;;;;;;6.03;3.73;;;;;;;12.75;100.00;94681.50;5012489;28;20210;-60
2022/10/15 01:53:18;;;;;;;4.47;4.07;;;;;;;12.87;100.00;94688.00;5012089;28;20273;-62
2022/10/15 01:55:46;;;;;;;7.03;4.33;;;;;;;12.96;100.00;94689.72;5012581;28;20233;-62
2022/10/15 01:58:16;;;;;;;4.57;3.80;;;;;;;12.88;100.00;94671.78;5010904;28;20401;-62
2022/10/15 02:00:42;;;;;;;5.93;3.53;;;;;;;12.78;100.00;94676.94;5027290;28;20222;-59
2022/10/15 02:03:08;;;;;;;4.10;3.70;;;;;;;12.92;100.00;94693.50;5011165;28;20183;-60
2022/10/15 02:05:47;;;;;;;5.00;3.57;;;;;;;12.71;100.00;94670.78;5012115;28;20221;-62
2022/10/15 02:08:21;;;;;;;7.50;4.10;;;;;;;12.85;100.00;94677.94;5012226;28;20183;-62
2022/10/15 02:10:52;;;;;;;4.10;3.70;;;;;;;12.95;100.00;94694.00;5012307;28;20215;-61
2022/10/15 02:13:45;;;;;;;6.53;3.70;;;;;;;12.84;100.00;94667.91;5012065;28;20554;-61
2022/10/15 02:16:22;;;;;;;7.67;4.10;;;;;;;12.68;100.00;94671.88;5012498;28;20210;-62
2022/10/15 02:18:54;;;;;;;6.43;4.53;;;;;;;12.61;100.00;94662.38;5012035;28;20260;-60
2022/10/15 02:21:27;;;;;;;4.97;4.20;;;;;;;12.68;100.00;94676.19;5012136;28;20691;-61
2022/10/15 02:24:18;;;;;;;7.63;4.17;;;;;;;12.73;100.00;94684.19;5011749;28;20219;-63
2022/10/15 02:26:45;;;;;;;5.83;4.17;;;;;;;12.65;100.00;94669.59;5012134;28;20692;-60
2022/10/15 02:29:14;;;;;;;7.23;3.80;;;;;;;12.67;100.00;94669.47;5011891;28;20268;-64
2022/10/15 02:31:43;;;;;;;5.57;4.03;;;;;;;12.71;100.00;94680.97;5010391;28;20206;-61
2022/10/15 02:34:14;;;;;;;4.90;3.80;;;;;;;12.73;100.00;94685.94;5011715;28;20198;-61
2022/10/15 02:36:41;;;;;;;4.77;3.70;;;;;;;12.80;100.00;94690.34;5011985;28;20201;-63
2022/10/15 02:39:10;;;;;;;7.37;3.30;;;;;;;12.79;100.00;94683.63;5011477;28;20207;-61
2022/10/15 02:41:38;;;;;;;6.07;3.00;;;;;;;12.92;100.00;94699.41;5012030;28;20197;-62
2022/10/15 02:44:03;;;;;;;4.37;3.00;;;;;;;12.72;100.00;94682.59;5010280;28;20217;-63
2022/10/15 02:46:29;;;;;;;4.23;3.60;;;;;;;12.62;100.00;94664.78;5011654;28;20692;-62
2022/10/15 02:48:54;;;;;;;6.40;3.50;;;;;;;12.70;100.00;94669.19;5011507;28;20214;-60
2022/10/15 02:51:20;;;;;;;6.00;3.10;;;;;;;12.69;100.00;94662.47;5011496;28;20187;-63
2022/10/15 02:53:45;;;;;;;3.47;2.83;;;;;;;12.66;100.00;94672.97;5010229;28;20695;-62
2022/10/15 02:56:10;;;;;;;3.43;3.10;;;;;;;12.63;100.00;94663.03;5011779;28;20211;-63
2022/10/15 02:58:36;;;;;;;6.10;3.70;;;;;;;12.81;100.00;94683.47;5011312;28;20179;-63
2022/10/15 03:01:01;;;;;;;4.63;3.27;;;;;;;12.85;100.00;94680.50;5011591;28;20723;-60
2022/10/15 03:03:27;;;;;;;6.03;4.17;;;;;;;12.41;100.00;94661.66;5011213;28;20199;-63
2022/10/15 03:05:52;;;;;;;4.57;4.03;;;;;;;12.40;100.00;94661.81;5011577;28;20222;-61
2022/10/15 03:08:18;;;;;;;5.13;3.47;;;;;;;12.62;100.00;94676.75;5011441;28;20266;-61
2022/10/15 03:10:45;;;;;;;3.57;2.90;;;;;;;12.59;100.00;94671.91;5011445;28;20645;-61
2022/10/15 03:13:11;;;;;;;4.30;3.17;;;;;;;12.68;100.00;94686.38;5011964;28;20197;-61
2022/10/15 03:15:36;;;;;;;4.43;3.70;;;;;;;12.63;100.00;94668.94;5014616;28;20578;-63
2022/10/15 03:18:02;;;;;;;3.67;3.10;;;;;;;12.51;100.00;94659.06;5014950;28;20270;-63
2022/10/15 03:20:27;;;;;;;6.10;3.50;;;;;;;12.38;100.00;94661.94;5029829;28;20269;-62
2022/10/15 03:22:53;;;;;;;3.33;3.03;;;;;;;12.40;100.00;94651.63;5014554;28;20190;-63
2022/10/15 03:25:18;;;;;;;6.83;3.93;;;;;;;12.39;100.00;94675.50;5029634;28;20227;-62
2022/10/15 03:27:44;;;;;;;5.00;3.23;;;;;;;12.35;100.00;94667.34;5014429;28;20198;-59
2022/10/15 03:30:09;;;;;;;7.23;4.10;;;;;;;12.42;100.00;94672.69;5014491;28;20253;-61
2022/10/15 03:32:35;;;;;;;7.03;3.43;;;;;;;12.46;100.00;94681.66;5014492;28;20182;-60
2022/10/15 03:35:00;;;;;;;4.23;3.30;;;;;;;12.62;100.00;94690.28;5014344;28;20215;-58
2022/10/15 03:37:26;;;;;;;3.77;2.90;;;;;;;12.67;100.00;94682.22;5029399;28;20194;-60
2022/10/15 03:39:51;;;;;;;4.73;3.67;;;;;;;12.63;100.00;94678.34;5013025;28;20657;-64
2022/10/15 03:42:16;;;;;;;5.93;3.67;;;;;;;12.61;100.00;94685.31;5013072;28;20557;-61
2022/10/15 03:44:42;;;;;;;4.17;3.07;;;;;;;12.76;100.00;94704.34;5013606;28;20207;-60
2022/10/15 03:47:07;;;;;;;3.87;3.47;;;;;;;12.51;100.00;94679.47;5014038;28;20297;-62
2022/10/15 03:49:33;;;;;;;8.40;3.60;;;;;;;12.44;100.00;94673.34;5014411;28;20209;-64
2022/10/15 03:51:58;;;;;;;4.27;3.83;;;;;;;12.40;100.00;94677.13;5013088;28;20218;-63
2022/10/15 03:54:24;;;;;;;4.43;3.70;;;;;;;12.55;100.00;94696.91;5014268;28;20207;-61
2022/10/15 03:56:49;;;;;;;4.80;3.40;;;;;;;12.50;100.00;94690.63;5014155;28;20218;-62
2022/10/15 03:59:15;;;;;;;6.70;3.40;;;;;;;12.31;100.00;94681.28;5014076;28;20344;-61
2022/10/15 04:01:47;;;;;;;4.77;3.67;;;;;;;12.58;100.00;94700.94;5013998;28;20194;-61
2022/10/15 04:04:12;;;;;;;6.03;3.87;;;;;;;12.48;100.00;94693.28;5014091;28;20214;-62
2022/10/15 04:06:39;;;;;;;4.30;3.70;;;;;;;12.38;100.00;94682.31;5014156;28;20217;-62
2022/10/15 04:09:04;;;;;;;7.53;4.37;;;;;;;12.63;100.00;94706.41;5013850;28;20199;-62
2022/10/15 04:11:30;;;;;;;5.63;3.97;;;;;;;12.59;100.00;94710.16;5014278;28;20206;-64
2022/10/15 04:13:55;;;;;;;4.47;3.70;;;;;;;12.34;100.00;94683.56;5013681;28;20636;-63
2022/10/15 04:16:21;;;;;;;5.93;3.17;;;;;;;12.46;100.00;94696.94;5013972;28;20274;-62
2022/10/15 04:18:46;;;;;;;3.83;3.43;;;;;;;12.29;100.00;94679.81;5013850;28;20289;-63
2022/10/15 04:21:12;;;;;;;5.63;4.00;;;;;;;12.14;100.00;94681.22;5013813;28;20221;-61
2022/10/15 04:23:38;;;;;;;6.47;4.23;;;;;;;12.16;100.00;94681.91;5012574;28;20325;-64
2022/10/15 04:26:03;;;;;;;6.60;4.17;;;;;;;12.17;100.00;94680.94;5012771;28;20660;-60
2022/10/15 04:28:29;;;;;;;10.07;6.60;;;;;;;12.29;100.00;94679.81;5012375;28;20213;-62
2022/10/15 04:30:59;;;;;;;5.47;4.43;;;;;;;12.40;100.00;94694.97;5013614;28;20195;-60
2022/10/15 04:33:25;;;;;;;5.30;4.03;;;;;;;12.37;100.00;94687.56;5013485;28;20280;-63
2022/10/15 04:36:02;;;;;;;5.57;3.90;;;;;;;12.45;100.00;94703.78;5012277;28;20649;-60
2022/10/15 04:38:27;;;;;;;10.20;4.50;;;;;;;12.36;100.00;94707.16;5013384;28;20185;-62
2022/10/15 04:41:08;;;;;;;9.70;4.30;;;;;;;12.20;100.00;94690.88;5013473;28;20187;-62
2022/10/15 04:43:34;;;;;;;6.57;3.70;;;;;;;12.25;100.00;94698.88;5012049;28;20197;-62
2022/10/15 04:46:01;;;;;;;9.70;4.63;;;;;;;12.39;100.00;94709.44;5013336;28;20233;-61
2022/10/15 04:48:29;;;;;;;8.83;4.53;;;;;;;12.36;100.00;94709.72;5013357;28;20652;-64
2022/10/15 04:51:01;;;;;;;6.53;4.83;;;;;;;12.29;100.00;94710.41;5013792;28;20198;-62
2022/10/15 04:53:26;;;;;;;6.03;4.07;;;;;;;12.29;100.00;94706.13;5013345;28;20183;-63
2022/10/15 04:55:52;;;;;;;6.97;5.17;;;;;;;12.14;100.00;94704.94;5013640;28;20664;-63
2022/10/15 04:58:17;;;;;;;7.83;4.43;;;;;;;12.15;100.00;94700.66;5013171;28;20277;-63
2022/10/15 05:00:42;;;;;;;6.73;4.83;;;;;;;12.24;100.00;94710.03;5013320;28;20304;-62
2022/10/15 05:03:08;;;;;;;7.17;4.87;;;;;;;12.38;100.00;94717.25;5013144;28;20642;-62
2022/10/15 05:05:35;;;;;;;7.83;4.07;;;;;;;12.27;100.00;94717.38;5011732;28;20226;-62
2022/10/15 05:08:02;;;;;;;9.70;4.63;;;;;;;12.22;100.00;94714.47;5013267;28;20671;-62
2022/10/15 05:10:28;;;;;;;7.17;4.83;;;;;;;12.25;100.00;94725.19;5012854;28;20214;-61
2022/10/15 05:12:53;;;;;;;8.77;5.00;;;;;;;12.29;100.00;94731.63;5013062;28;20280;-61
2022/10/15 05:15:19;;;;;;;6.77;4.87;;;;;;;12.16;100.00;94715.81;5012957;28;20673;-62
2022/10/15 05:17:44;;;;;;;7.40;4.30;;;;;;;12.27;100.00;94722.50;5012969;28;20571;-62
2022/10/15 05:20:10;;;;;;;7.20;5.17;;;;;;;12.17;100.00;94730.16;5012795;28;20404;-61
2022/10/15 05:22:35;;;;;;;6.93;4.80;;;;;;;12.21;100.00;94728.94;5024956;23;20214;-60
2022/10/15 05:25:00;;;;;;;8.03;5.10;;;;;;;12.38;100.00;94728.22;5052222;28;20210;-60
2022/10/15 05:27:26;;;;;;;6.43;4.33;;;;;;;12.29;100.00;94728.25;5052358;28;20178;-60
2022/10/15 05:29:51;;;;;;;7.47;5.40;;;;;;;12.30;100.00;94732.44;5052284;28;20220;-63
2022/10/15 05:32:16;;;;;;;8.00;5.20;;;;;;;12.26;100.00;94729.31;5052501;28;20194;-62
2022/10/15 05:34:42;;;;;;;6.70;4.63;;;;;;;12.23;100.00;94723.72;5073683;23;20229;-62
2022/10/15 05:37:07;;;;;;;7.67;4.63;;;;;;;12.28;100.00;94731.75;5071995;28;20655;-59
2022/10/15 05:39:33;;;;;;;9.37;5.57;;;;;;;12.37;100.00;94744.47;5072649;28;20678;-62
2022/10/15 05:41:58;;;;;;;7.23;4.70;;;;;;;12.41;100.00;94737.34;5072067;28;20184;-60
2022/10/15 05:44:23;;;;;;;7.07;4.97;;;;;;;12.44;100.00;94737.09;5072316;28;20216;-59
2022/10/15 05:46:49;;;;;;;10.73;5.53;;;;;;;12.49;100.00;94747.66;5054137;28;20223;-61
2022/10/15 05:49:14;;;;;;;9.67;4.90;;;;;;;12.58;100.00;94746.84;5072254;28;20683;-61
2022/10/15 05:51:40;;;;;;;9.50;5.53;;;;;;;12.68;100.00;94753.47;5072024;28;20675;-61
2022/10/15 05:54:05;;;;;;;8.40;5.27;;;;;;;12.83;100.00;94769.13;5071894;28;20598;-61
2022/10/15 05:56:31;;;;;;;8.47;5.13;;;;;;;12.88;100.00;94772.09;5071969;28;20192;-61
2022/10/15 05:58:57;;;;;;;7.50;4.97;;;;;;;13.04;100.00;94786.81;5071756;28;20698;-62
2022/10/15 06:01:22;;;;;;;6.23;4.70;;;;;;;13.11;100.00;94793.75;5071984;28;20195;-63
2022/10/15 06:03:48;;;;;;;9.03;4.90;;;;;;;12.97;100.00;94771.22;5071661;28;20217;-63
2022/10/15 06:06:16;;;;;;;8.03;4.83;;;;;;;13.06;100.00;94790.03;5071860;28;20243;-60
2022/10/15 06:08:42;;;;;;;6.93;4.93;;;;;;;13.15;100.00;94792.53;5071816;28;20207;-61
2022/10/15 06:11:07;;;;;;;9.17;5.27;;;;;;;13.16;100.00;94799.25;5071877;28;20192;-62
2022/10/15 06:13:33;;;;;;;6.23;4.93;;;;;;;13.24;100.00;94809.56;5071381;28;20204;-62
2022/10/15 06:15:58;;;;;;;12.23;6.27;;;;;;;13.10;100.00;94793.91;5071510;28;20268;-61
2022/10/15 06:18:24;;;;;;;10.97;5.00;;;;;;;13.18;100.00;94794.81;5071449;28;20572;-61
2022/10/15 06:20:51;;;;;;;9.47;5.10;;;;;;;13.32;100.00;94819.88;5053623;28;20184;-62
2022/10/15 06:23:17;;;;;;;10.13;4.87;;;;;;;13.13;100.00;94806.41;5071524;28;20747;-62
2022/10/15 06:25:43;;;;;;;8.23;4.53;;;;;;;13.06;100.00;94790.03;5071424;28;20225;-63
2022/10/15 06:28:08;;;;;;;7.33;4.97;;;;;;;13.26;100.00;94828.09;5071405;28;20193;-63
2022/10/15 06:30:34;;;;;;;7.10;4.33;;;;;;;13.12;100.00;94817.53;5071550;28;20619;-62
2022/10/15 06:32:59;;;;;;;6.93;4.60;;;;;;;13.18;100.00;94822.09;5071358;28;20192;-61
2022/10/15 06:35:25;;;;;;;11.30;5.07;;;;;;;13.23;100.00;94825.81;5071406;28;20216;-60
2022/10/15 06:37:52;;;;;;;8.67;5.10;;;;;;;13.18;100.00;94835.66;5053379;28;20185;-60
2022/10/15 06:40:18;;;;;;;5.80;4.57;;;;;;;13.08;100.00;94828.97;5071188;28;20200;-60
2022/10/15 06:42:43;;;;;;;11.97;5.20;;;;;;;13.19;100.00;94824.47;5071656;28;20259;-61
2022/10/15 06:45:10;;;;;;;7.87;5.63;;;;;;;13.10;100.00;94833.00;5071063;28;20236;-62
2022/10/15 06:47:37;;;;;;;7.03;5.00;;;;;;;13.29;100.00;94806.59;5070280;28;20227;-63
2022/10/15 06:50:04;;;;;;;6.97;4.87;;;;;;;13.45;100.00;94839.97;5071480;28;20353;-60
2022/10/15 06:52:30;;;;;;;8.00;4.90;;;;;;;13.45;100.00;94837.41;5070952;28;20208;-63
2022/10/15 06:54:56;;;;;;;8.03;5.40;;;;;;;13.52;100.00;94855.50;5053017;28;20352;-61
2022/10/15 06:57:24;;;;;;;8.47;5.27;;;;;;;13.53;100.00;94852.84;5071029;28;20184;-61
2022/10/15 06:59:49;;;;;;;8.43;5.07;;;;;;;13.48;100.00;94855.81;5070907;28;20215;-61
2022/10/15 07:02:16;;;;;;;8.33;5.07;;;;;;;13.54;100.00;94851.06;5070764;28;20187;-61
2022/10/15 07:04:42;;;;;;;9.87;5.23;;;;;;;13.66;100.00;94878.81;5052684;28;20296;-61
2022/10/15 07:07:08;;;;;;;9.90;5.00;;;;;;;14.42;100.00;94784.66;5070709;28;20204;-62
2022/10/15 07:09:34;;;;;;;7.70;4.70;;;;;;;14.29;100.00;94892.44;5070529;28;20255;-60
2022/10/15 07:12:00;;;;;;;9.70;5.10;;;;;;;14.16;100.00;94887.66;5070971;28;20189;-62
2022/10/15 07:14:25;;;;;;;7.97;4.77;;;;;;;14.18;100.00;94926.66;5070881;28;20225;-62
2022/10/15 07:16:50;;;;;;;5.60;4.60;;;;;;;14.19;100.00;94917.25;5070808;28;20636;-59
2022/10/15 07:19:16;;;;;;;6.47;4.17;;;;;;;14.25;100.00;94927.72;5070670;28;20282;-60
2022/10/15 07:21:41;;;;;;;9.63;5.37;;;;;;;14.18;100.00;94915.66;5070596;28;20181;-60
2022/10/15 07:24:07;;;;;;;7.40;4.60;;;;;;;14.21;100.00;94885.47;5052655;28;20292;-61
2022/10/15 07:26:33;;;;;;;5.63;4.18;;;;;;;14.36;100.00;94975.31;5070542;28;20209;-61
2022/10/15 07:29:00;;;;;;;6.72;4.68;;;;;;;14.27;100.00;94922.44;5070492;28;20720;-62
2022/10/15 07:31:26;;;;;;;7.70;5.20;;;;;;;14.39;100.00;94925.59;5070450;28;20268;-61
2022/10/15 07:33:51;;;;;;;5.50;4.35;;;;;;;14.26;100.00;94906.28;5070414;28;20661;-59
2022/10/15 07:36:16;;;;;;;6.70;4.53;;;;;;;14.38;100.00;94899.25;5070319;28;20203;-60
2022/10/15 07:38:42;;;;;;;5.83;4.27;;;;;;;14.55;100.00;94877.94;5052563;28;20288;-61
2022/10/15 07:41:09;;;;;;;9.02;5.35;;;;;;;14.77;100.00;94931.22;5070343;28;20797;-61
2022/10/15 07:43:36;;;;;;;7.50;4.78;;;;;;;14.68;100.00;94960.28;5070506;28;20193;-62
2022/10/15 07:46:02;;;;;;;8.45;4.80;;;;;;;14.72;100.00;94963.34;5070114;28;20254;-62
2022/10/15 07:48:28;;;;;;;7.68;3.97;;;;;;;14.73;100.00;94978.53;5069865;28;20195;-61
2022/10/15 07:50:59;;;;;;;5.87;4.13;;;;;;;15.01;100.00;94974.13;5069961;28;20803;-61
2022/10/15 07:53:26;;;;;;;6.53;4.63;;;;;;;14.94;100.00;94980.78;5069886;28;20185;-59
2022/10/15 07:55:51;;;;;;;7.13;4.50;;;;;;;14.80;100.00;94959.09;5069990;28;20177;-62
2022/10/15 07:58:17;;;;;;;5.88;3.53;;;;;;;15.04;100.00;94978.94;5070094;28;20218;-63
2022/10/15 08:00:43;;;;;;;5.88;4.20;;;;;;;15.35;100.00;94977.56;5055113;28;20335;-62
2022/10/15 08:03:09;;;;;;;5.03;3.95;;;;;;;15.60;100.00;94999.84;5073985;28;20197;-62
2022/10/15 08:05:34;;;;;;;5.55;3.85;;;;;;;15.52;100.00;95016.94;5073380;28;20219;-63
2022/10/15 08:08:00;;;;;;;8.80;4.65;;;;;;;15.38;100.00;95013.13;5073472;28;20276;-58
2022/10/15 08:10:26;;;;;;;6.47;4.60;;;;;;;15.36;100.00;95047.53;5073528;28;20204;-60
2022/10/15 08:12:51;;;;;;;4.80;3.80;;;;;;;15.61;100.00;95042.47;5073357;28;20610;-60
2022/10/15 08:15:17;;;;;;;6.32;4.22;;;;;;;15.50;100.00;95018.84;5055382;28;20212;-60
2022/10/15 08:17:42;;;;;;;6.22;4.47;;;;;;;15.49;100.00;95053.13;5073191;28;20188;-59
2022/10/15 08:20:08;;;;;;;6.03;4.00;;;;;;;15.51;100.00;95049.47;5073372;28;20291;-61
2022/10/15 08:22:34;;;;;;;10.02;4.13;;;;;;;15.55;100.00;95026.88;5055249;28;20250;-60
2022/10/15 08:25:00;;;;;;;5.93;4.65;;;;;;;15.43;100.00;95015.28;5073397;28;20287;-59
2022/10/15 08:27:26;;;;;;;8.98;3.97;;;;;;;15.40;100.00;95023.22;5073208;28;20566;-61
2022/10/15 08:29:51;;;;;;;19.42;4.20;;;;;;;15.47;100.00;95014.03;5073208;28;20219;-61
2022/10/15 08:32:17;;;;;;;4.95;4.22;;;;;;;15.44;100.00;94983.56;5055288;28;20192;-59
2022/10/15 08:34:42;;;;;;;5.68;4.13;;;;;;;15.59;100.00;95069.22;5073193;28;20651;-59
2022/10/15 08:37:08;;;;;;;5.32;4.05;;;;;;;15.79;100.00;95080.88;5073044;28;20576;-59
2022/10/15 08:39:34;;;;;;;4.28;3.88;;;;;;;15.62;100.00;95043.25;5072892;28;20268;-59
2022/10/15 08:42:04;;;;;;;4.40;3.95;;;;;;;15.70;100.00;95074.06;5072868;28;20181;-58
2022/10/15 08:44:35;;;;;;;5.35;3.97;;;;;;;15.57;100.00;95071.91;5073184;28;20204;-61
2022/10/15 08:47:29;;;;;;;9.00;4.47;;;;;;;15.22;100.00;95007.09;5072707;28;20200;-62
2022/10/15 08:50:16;;;;;;;5.65;4.57;;;;;;;15.37;100.00;95011.50;5073149;28;20831;-61
2022/10/15 08:52:44;;;;;;;6.50;4.28;;;;;;;15.91;100.00;95010.44;5072922;28;20669;-61
2022/10/15 08:55:13;;;;;;;5.47;4.35;;;;;;;16.11;100.00;95027.19;5072656;28;20233;-62
2022/10/15 08:58:00;;;;;;;6.82;4.05;;;;;;;16.18;99.84;95071.78;5072532;28;20272;-62
2022/10/15 09:00:40;;;;;;;6.80;4.72;;;;;;;16.07;100.00;95050.72;5072390;28;20216;-62
2022/10/15 09:03:21;;;;;;;5.43;4.00;;;;;;;16.23;100.00;95046.47;5072642;28;20286;-62
2022/10/15 09:06:08;;;;;;;6.90;4.65;;;;;;;15.78;100.00;95008.28;5072545;28;20212;-59
2022/10/15 09:09:11;;;;;;;7.97;5.35;;;;;;;15.94;99.83;95072.47;5072580;28;20288;-59
2022/10/15 09:11:55;;;;;;;7.20;4.63;;;;;;;16.20;99.44;95059.59;5021174;28;20197;-59
2022/10/15 09:14:27;;;;;;;7.00;3.97;;;;;;;16.77;95.33;95143.59;5070156;28;20304;-61
2022/10/15 09:16:53;;;;;;;6.45;3.53;;;;;;;17.48;94.73;95161.09;5063514;28;20189;-59
2022/10/15 09:19:22;;;;;;;7.97;4.10;;;;;;;18.16;94.24;95164.19;5052271;28;20221;-62
2022/10/15 09:21:51;;;;;;;5.05;3.70;;;;;;;18.57;88.99;95237.84;5052288;28;20286;-62
2022/10/15 09:24:27;;;;;;;6.03;3.75;;;;;;;18.76;87.79;95231.53;5052194;28;20205;-62
2022/10/15 09:26:58;;;;;;;3.88;3.42;;;;;;;18.60;85.39;95268.44;5052028;28;20227;-59
2022/10/15 09:29:46;;;;;;;4.60;3.63;;;;;;;18.13;87.42;95201.34;5052580;28;20308;-61
2022/10/15 09:32:22;;;;;;;4.85;3.95;;;;;;;18.56;86.93;95209.69;5052299;28;20320;-59
2022/10/15 09:34:59;;;;;;;5.90;3.20;;;;;;;18.72;84.89;95248.28;5034280;28;20205;-61
2022/10/15 09:37:35;;;;;;;6.45;3.63;;;;;;;19.09;83.06;95271.66;5052119;28;20196;-59
2022/10/15 09:40:27;;;;;;;5.07;3.40;;;;;;;19.20;72.84;95289.34;5052213;28;20205;-59
2022/10/15 09:42:56;;;;;;;7.35;3.85;;;;;;;18.95;71.35;95175.25;5051889;28;20246;-59
2022/10/15 09:45:25;;;;;;;5.22;3.75;;;;;;;18.81;68.27;95211.19;5051780;28;20224;-60
2022/10/15 09:47:55;;;;;;;8.18;4.15;;;;;;;19.21;67.90;95200.72;5051955;28;20590;-61
2022/10/15 09:50:20;;;;;;;4.75;3.63;;;;;;;19.37;67.73;95200.69;5051760;28;20228;-61
2022/10/15 09:52:46;;;;;;;6.65;4.10;;;;;;;19.19;66.49;95218.94;5051684;28;20652;-62
2022/10/15 09:55:28;;;;;;;5.22;4.15;;;;;;;19.13;66.23;95213.66;5033617;28;20296;-62
2022/10/15 09:57:58;;;;;;;6.13;3.97;;;;;;;18.95;66.68;95192.47;5051833;28;20193;-63
2022/10/15 10:00:24;;;;;;;4.93;4.00;;;;;;;19.01;66.14;95204.69;5051486;28;20215;-63
2022/10/15 10:03:12;;;;;;;5.18;4.10;;;;;;;19.20;66.16;95206.88;5051597;28;20192;-63
2022/10/15 10:05:38;;;;;;;5.35;3.65;;;;;;;18.96;66.78;95178.63;5058001;23;20249;-62
2022/10/15 10:08:09;;;;;;;4.20;3.80;;;;;;;18.98;66.34;95197.28;5051520;28;20741;-63
2022/10/15 10:10:36;;;;;;;8.13;3.97;;;;;;;19.22;64.45;95248.75;5051365;28;20224;-62
2022/10/15 10:13:14;;;;;;;7.07;3.88;;;;;;;19.49;62.73;95271.56;5051764;28;20589;-60
2022/10/15 10:15:41;;;;;;;6.15;4.10;;;;;;;19.27;62.19;95282.56;5051606;28;20752;-61
2022/10/15 10:18:18;;;;;;;6.25;4.28;;;;;;;18.95;61.59;95291.19;5051513;28;20245;-60
2022/10/15 10:21:05;;;;;;;6.22;3.75;;;;;;;18.89;63.55;95242.09;5051412;28;20690;-61
2022/10/15 10:23:36;;;;;;;4.65;4.20;;;;;;;18.73;64.81;95196.59;5050491;28;20196;-60
2022/10/15 10:26:05;;;;;;;7.97;4.18;;;;;;;18.49;64.88;95188.09;5051321;28;20213;-60
2022/10/15 10:28:40;;;;;;;4.78;4.18;;;;;;;18.25;64.31;95183.78;5051542;28;20193;-61
2022/10/15 10:31:09;;;;;;;4.70;3.55;;;;;;;18.05;64.48;95183.34;5050174;28;20184;-61
2022/10/15 10:33:49;;;;;;;5.63;3.50;;;;;;;18.09;64.07;95191.53;5049758;28;20215;-64
2022/10/15 10:36:34;;;;;;;4.05;3.58;;;;;;;18.29;63.97;95190.22;5051157;28;20204;-62
2022/10/15 10:39:03;;;;;;;4.43;3.58;;;;;;;18.22;63.77;95192.63;5033294;28;20224;-60
2022/10/15 10:41:56;;;;;;;5.05;3.55;;;;;;;18.06;63.26;95202.94;5051260;28;20726;-62
2022/10/15 10:44:37;;;;;;;6.95;3.83;;;;;;;18.46;63.70;95183.31;5051355;28;20255;-62
2022/10/15 10:47:16;;;;;;;5.15;3.30;;;;;;;18.88;61.42;95246.47;5050870;28;20725;-59
2022/10/15 10:49:53;;;;;;;4.13;3.30;;;;;;;19.41;58.92;95305.13;5051222;28;20205;-61
2022/10/15 10:52:22;;;;;;;4.50;2.42;;;;;;;19.91;57.05;95343.41;5033027;28;20618;-58
2022/10/15 10:54:54;;;;;;;3.20;2.65;;;;;;;19.96;53.87;95434.84;5033055;28;20248;-62
2022/10/15 10:57:30;;;;;;;3.10;2.72;;;;;;;20.09;53.34;95417.06;5051106;28;20220;-59
2022/10/15 10:59:56;;;;;;;7.40;3.40;;;;;;;20.37;51.77;95466.50;5051340;28;20212;-60
2022/10/15 11:02:22;;;;;;;3.08;2.78;;;;;;;20.53;53.16;95386.28;5050831;28;20605;-59
2022/10/15 11:04:47;;;;;;;3.83;2.65;;;;;;;20.87;51.69;95429.81;5051135;28;20202;-61
2022/10/15 11:07:13;;;;;;;4.90;3.47;;;;;;;21.23;53.69;95352.44;5050594;28;20722;-60
2022/10/15 11:09:52;;;;;;;3.17;2.85;;;;;;;21.52;50.32;95451.56;5051068;28;20741;-61
2022/10/15 11:12:32;;;;;;;3.60;2.83;;;;;;;21.79;51.26;95400.97;5050910;28;20212;-61
2022/10/15 11:15:26;;;;;;;6.50;2.88;;;;;;;21.72;49.97;95426.78;5050610;28;20205;-61
2022/10/15 11:18:19;;;;;;;5.88;2.70;;;;;;;21.19;51.17;95379.63;5050598;28;20340;-61
2022/10/15 11:21:36;;;;;;;4.55;2.90;;;;;;;20.95;51.69;95348.81;5032577;28;20702;-58
2022/10/15 11:24:13;;;;;;;3.30;2.95;;;;;;;20.99;49.50;95407.72;5027626;28;20230;-62
2022/10/15 11:27:14;;;;;;;3.95;2.95;;;;;;;21.32;50.20;95393.56;5050492;28;20633;-60
2022/10/15 11:30:06;;;;;;;3.70;2.70;;;;;;;21.19;49.25;95414.03;5032800;28;20217;-62
2022/10/15 11:32:47;;;;;;;2.50;2.30;;;;;;;21.58;48.25;95448.28;5050789;28;20255;-61
2022/10/15 11:35:41;;;;;;;4.18;2.70;;;;;;;22.05;47.71;95460.09;5052734;28;20592;-60
2022/10/15 11:38:12;;;;;;;3.95;3.00;;;;;;;21.93;47.33;95464.94;5053969;28;20189;-61
2022/10/15 11:40:56;;;;;;;4.03;2.47;;;;;;;22.06;46.08;95477.25;5053884;28;20659;-62